sensor_id;sensor_type;location;lat;lon;timestamp;temperature;humidity
15450;DHT22;7826;49.784;9.934;2023-08-30T00:01:25;14.30;1.00
15450;DHT22;7826;49.784;9.934;2023-08-30T00:03:52;14.30;1.00
15450;DHT22;7826;49.784;9.934;2023-08-30T00:06:19;14.30;1.00
15450;DHT22;7826;49.784;9.934;2023-08-30T00:08:45;14.20;1.00
15450;DHT22;7826;49.784;9.934;2023-08-30T00:11:12;14.20;1.00
15450;DHT22;7826;49.784;9.934;2023-08-30T00:13:38;14.20;1.00
15450;DHT22;7826;49.784;9.934;2023-08-30T00:16:05;14.20;1.00
15450;DHT22;7826;49.784;9.934;2023-08-30T00:18:31;14.20;1.00
15450;DHT22;7826;49.784;9.934;2023-08-30T00:20:58;14.10;1.00
15450;DHT22;7826;49.784;9.934;2023-08-30T00:23:25;14.10;1.00
15450;DHT22;7826;49.784;9.934;2023-08-30T00:25:51;14.10;1.00
15450;DHT22;7826;49.784;9.934;2023-08-30T00:28:18;14.10;1.00
15450;DHT22;7826;49.784;9.934;2023-08-30T00:30:44;14.10;1.00
15450;DHT22;7826;49.784;9.934;2023-08-30T00:33:11;14.10;1.00
15450;DHT22;7826;49.784;9.934;2023-08-30T00:35:38;14.10;1.00
15450;DHT22;7826;49.784;9.934;2023-08-30T00:38:04;14.00;1.00
15450;DHT22;7826;49.784;9.934;2023-08-30T00:40:38;14.00;1.00
15450;DHT22;7826;49.784;9.934;2023-08-30T00:43:05;14.00;1.00
15450;DHT22;7826;49.784;9.934;2023-08-30T00:45:33;14.00;1.00
15450;DHT22;7826;49.784;9.934;2023-08-30T00:47:59;14.00;1.00
15450;DHT22;7826;49.784;9.934;2023-08-30T00:50:26;14.00;1.00
15450;DHT22;7826;49.784;9.934;2023-08-30T00:52:52;14.00;1.00
15450;DHT22;7826;49.784;9.934;2023-08-30T00:55:19;14.00;1.00
15450;DHT22;7826;49.784;9.934;2023-08-30T00:57:45;14.00;1.00
15450;DHT22;7826;49.784;9.934;2023-08-30T01:00:12;14.00;1.00
15450;DHT22;7826;49.784;9.934;2023-08-30T01:02:39;14.10;1.00
15450;DHT22;7826;49.784;9.934;2023-08-30T01:05:05;14.10;1.00
15450;DHT22;7826;49.784;9.934;2023-08-30T01:07:32;14.10;1.00
15450;DHT22;7826;49.784;9.934;2023-08-30T01:09:59;14.10;1.00
15450;DHT22;7826;49.784;9.934;2023-08-30T01:12:39;14.10;1.00
15450;DHT22;7826;49.784;9.934;2023-08-30T01:15:10;14.20;1.00
15450;DHT22;7826;49.784;9.934;2023-08-30T01:17:39;14.20;1.00
15450;DHT22;7826;49.784;9.934;2023-08-30T01:20:08;14.30;1.00
15450;DHT22;7826;49.784;9.934;2023-08-30T01:23:01;14.30;1.00
15450;DHT22;7826;49.784;9.934;2023-08-30T01:28:22;14.30;1.00
15450;DHT22;7826;49.784;9.934;2023-08-30T01:30:50;14.30;1.00
15450;DHT22;7826;49.784;9.934;2023-08-30T01:33:21;14.30;1.00
15450;DHT22;7826;49.784;9.934;2023-08-30T01:35:47;14.40;1.00
15450;DHT22;7826;49.784;9.934;2023-08-30T01:38:14;14.30;1.00
15450;DHT22;7826;49.784;9.934;2023-08-30T01:40:43;14.30;1.00
15450;DHT22;7826;49.784;9.934;2023-08-30T01:43:10;14.30;1.00
15450;DHT22;7826;49.784;9.934;2023-08-30T01:45:42;14.20;1.00
15450;DHT22;7826;49.784;9.934;2023-08-30T01:48:11;14.20;1.00
15450;DHT22;7826;49.784;9.934;2023-08-30T01:50:39;14.20;1.00
15450;DHT22;7826;49.784;9.934;2023-08-30T01:53:08;14.20;1.00
15450;DHT22;7826;49.784;9.934;2023-08-30T01:55:36;14.30;1.00
15450;DHT22;7826;49.784;9.934;2023-08-30T01:58:04;14.20;1.00
15450;DHT22;7826;49.784;9.934;2023-08-30T02:00:30;14.20;1.00
15450;DHT22;7826;49.784;9.934;2023-08-30T02:02:57;14.30;1.00
15450;DHT22;7826;49.784;9.934;2023-08-30T02:05:24;14.20;1.00
15450;DHT22;7826;49.784;9.934;2023-08-30T02:08:15;14.20;1.00
15450;DHT22;7826;49.784;9.934;2023-08-30T02:10:56;14.20;1.00
15450;DHT22;7826;49.784;9.934;2023-08-30T02:13:28;14.20;1.00
15450;DHT22;7826;49.784;9.934;2023-08-30T02:15:56;14.20;1.00
15450;DHT22;7826;49.784;9.934;2023-08-30T02:18:25;14.30;1.00
15450;DHT22;7826;49.784;9.934;2023-08-30T02:20:53;14.30;1.00
15450;DHT22;7826;49.784;9.934;2023-08-30T02:23:23;14.30;1.00
15450;DHT22;7826;49.784;9.934;2023-08-30T02:25:51;14.30;1.00
15450;DHT22;7826;49.784;9.934;2023-08-30T02:28:17;14.30;1.00
15450;DHT22;7826;49.784;9.934;2023-08-30T02:30:44;14.30;1.00
15450;DHT22;7826;49.784;9.934;2023-08-30T02:33:10;14.30;1.00
15450;DHT22;7826;49.784;9.934;2023-08-30T02:35:37;14.40;1.00
15450;DHT22;7826;49.784;9.934;2023-08-30T02:38:03;14.30;1.00
15450;DHT22;7826;49.784;9.934;2023-08-30T02:40:31;14.40;1.00
15450;DHT22;7826;49.784;9.934;2023-08-30T02:42:58;14.40;1.00
15450;DHT22;7826;49.784;9.934;2023-08-30T02:45:24;14.40;1.00
15450;DHT22;7826;49.784;9.934;2023-08-30T02:47:51;14.40;1.00
15450;DHT22;7826;49.784;9.934;2023-08-30T02:50:21;14.40;1.00
15450;DHT22;7826;49.784;9.934;2023-08-30T02:52:47;14.40;1.00
15450;DHT22;7826;49.784;9.934;2023-08-30T02:55:14;14.40;1.00
15450;DHT22;7826;49.784;9.934;2023-08-30T02:57:40;14.30;1.00
15450;DHT22;7826;49.784;9.934;2023-08-30T03:00:07;14.30;1.00
15450;DHT22;7826;49.784;9.934;2023-08-30T03:02:35;14.40;1.00
15450;DHT22;7826;49.784;9.934;2023-08-30T03:05:01;14.40;1.00
15450;DHT22;7826;49.784;9.934;2023-08-30T03:07:30;14.40;1.00
15450;DHT22;7826;49.784;9.934;2023-08-30T03:09:56;14.40;1.00
15450;DHT22;7826;49.784;9.934;2023-08-30T03:12:23;14.40;1.00
15450;DHT22;7826;49.784;9.934;2023-08-30T03:14:50;14.40;1.00
15450;DHT22;7826;49.784;9.934;2023-08-30T03:17:17;14.40;1.00
15450;DHT22;7826;49.784;9.934;2023-08-30T03:19:43;14.40;1.00
15450;DHT22;7826;49.784;9.934;2023-08-30T03:22:10;14.40;1.00
15450;DHT22;7826;49.784;9.934;2023-08-30T03:24:36;14.40;1.00
15450;DHT22;7826;49.784;9.934;2023-08-30T03:27:03;14.40;1.00
15450;DHT22;7826;49.784;9.934;2023-08-30T03:29:30;14.40;1.00
15450;DHT22;7826;49.784;9.934;2023-08-30T03:31:56;14.40;1.00
15450;DHT22;7826;49.784;9.934;2023-08-30T03:34:23;14.40;1.00
15450;DHT22;7826;49.784;9.934;2023-08-30T03:36:49;14.40;1.00
15450;DHT22;7826;49.784;9.934;2023-08-30T03:39:21;14.40;1.00
15450;DHT22;7826;49.784;9.934;2023-08-30T03:41:47;14.40;1.00
15450;DHT22;7826;49.784;9.934;2023-08-30T03:44:14;14.40;1.00
15450;DHT22;7826;49.784;9.934;2023-08-30T03:46:40;14.40;1.00
15450;DHT22;7826;49.784;9.934;2023-08-30T03:49:07;14.40;1.00
15450;DHT22;7826;49.784;9.934;2023-08-30T03:51:34;14.40;1.00
15450;DHT22;7826;49.784;9.934;2023-08-30T03:54:00;14.40;1.00
15450;DHT22;7826;49.784;9.934;2023-08-30T03:56:27;14.40;1.00
15450;DHT22;7826;49.784;9.934;2023-08-30T03:58:53;14.40;1.00
15450;DHT22;7826;49.784;9.934;2023-08-30T04:01:20;14.40;1.00
15450;DHT22;7826;49.784;9.934;2023-08-30T04:03:46;14.40;1.00
15450;DHT22;7826;49.784;9.934;2023-08-30T04:06:13;14.40;1.00
15450;DHT22;7826;49.784;9.934;2023-08-30T04:08:39;14.40;1.00
15450;DHT22;7826;49.784;9.934;2023-08-30T04:11:06;14.40;1.00
15450;DHT22;7826;49.784;9.934;2023-08-30T04:13:33;14.40;1.00
15450;DHT22;7826;49.784;9.934;2023-08-30T04:16:01;14.40;1.00
15450;DHT22;7826;49.784;9.934;2023-08-30T04:18:28;14.40;1.00
15450;DHT22;7826;49.784;9.934;2023-08-30T04:20:54;14.50;1.00
15450;DHT22;7826;49.784;9.934;2023-08-30T04:23:23;14.50;1.00
15450;DHT22;7826;49.784;9.934;2023-08-30T04:25:50;14.50;1.00
15450;DHT22;7826;49.784;9.934;2023-08-30T04:28:16;14.40;1.00
15450;DHT22;7826;49.784;9.934;2023-08-30T04:30:43;14.40;1.00
15450;DHT22;7826;49.784;9.934;2023-08-30T04:33:09;14.40;1.00
15450;DHT22;7826;49.784;9.934;2023-08-30T04:35:36;14.40;1.00
15450;DHT22;7826;49.784;9.934;2023-08-30T04:38:02;14.40;1.00
15450;DHT22;7826;49.784;9.934;2023-08-30T04:40:29;14.40;1.00
15450;DHT22;7826;49.784;9.934;2023-08-30T04:42:58;14.40;1.00
15450;DHT22;7826;49.784;9.934;2023-08-30T04:45:25;14.40;1.00
15450;DHT22;7826;49.784;9.934;2023-08-30T04:47:51;14.50;1.00
15450;DHT22;7826;49.784;9.934;2023-08-30T04:50:19;14.40;1.00
15450;DHT22;7826;49.784;9.934;2023-08-30T04:52:45;14.40;1.00
15450;DHT22;7826;49.784;9.934;2023-08-30T04:55:12;14.40;1.00
15450;DHT22;7826;49.784;9.934;2023-08-30T04:57:38;14.50;1.00
15450;DHT22;7826;49.784;9.934;2023-08-30T05:00:06;14.50;1.00
15450;DHT22;7826;49.784;9.934;2023-08-30T05:02:32;14.60;1.00
15450;DHT22;7826;49.784;9.934;2023-08-30T05:04:59;14.70;1.00
15450;DHT22;7826;49.784;9.934;2023-08-30T05:07:26;14.70;1.00
15450;DHT22;7826;49.784;9.934;2023-08-30T05:09:53;14.60;1.00
15450;DHT22;7826;49.784;9.934;2023-08-30T05:12:19;14.60;1.00
15450;DHT22;7826;49.784;9.934;2023-08-30T05:14:46;14.60;1.00
15450;DHT22;7826;49.784;9.934;2023-08-30T05:17:12;14.60;1.00
15450;DHT22;7826;49.784;9.934;2023-08-30T05:19:39;14.60;1.00
15450;DHT22;7826;49.784;9.934;2023-08-30T05:22:05;14.60;1.00
15450;DHT22;7826;49.784;9.934;2023-08-30T05:24:32;14.60;1.00
15450;DHT22;7826;49.784;9.934;2023-08-30T05:27:00;14.60;1.00
15450;DHT22;7826;49.784;9.934;2023-08-30T05:29:26;14.60;1.00
15450;DHT22;7826;49.784;9.934;2023-08-30T05:31:53;14.60;1.00
15450;DHT22;7826;49.784;9.934;2023-08-30T05:34:19;14.70;1.00
15450;DHT22;7826;49.784;9.934;2023-08-30T05:36:46;14.70;1.00
15450;DHT22;7826;49.784;9.934;2023-08-30T05:39:12;14.70;1.00
15450;DHT22;7826;49.784;9.934;2023-08-30T05:41:39;14.70;1.00
15450;DHT22;7826;49.784;9.934;2023-08-30T05:44:06;14.70;1.00
15450;DHT22;7826;49.784;9.934;2023-08-30T05:46:32;14.70;1.00
15450;DHT22;7826;49.784;9.934;2023-08-30T05:48:59;14.70;1.00
15450;DHT22;7826;49.784;9.934;2023-08-30T05:51:28;14.70;1.00
15450;DHT22;7826;49.784;9.934;2023-08-30T05:53:55;14.80;1.00
15450;DHT22;7826;49.784;9.934;2023-08-30T05:56:22;14.80;1.00
15450;DHT22;7826;49.784;9.934;2023-08-30T05:58:48;14.80;1.00
15450;DHT22;7826;49.784;9.934;2023-08-30T06:01:18;14.80;1.00
15450;DHT22;7826;49.784;9.934;2023-08-30T06:03:45;14.90;1.00
15450;DHT22;7826;49.784;9.934;2023-08-30T06:06:13;14.90;1.00
15450;DHT22;7826;49.784;9.934;2023-08-30T06:08:40;14.90;1.00
15450;DHT22;7826;49.784;9.934;2023-08-30T06:11:06;14.90;1.00
15450;DHT22;7826;49.784;9.934;2023-08-30T06:13:33;14.90;1.00
15450;DHT22;7826;49.784;9.934;2023-08-30T06:16:00;14.90;1.00
15450;DHT22;7826;49.784;9.934;2023-08-30T06:18:30;15.00;1.00
15450;DHT22;7826;49.784;9.934;2023-08-30T06:20:57;15.00;1.00
15450;DHT22;7826;49.784;9.934;2023-08-30T06:23:24;15.00;1.00
15450;DHT22;7826;49.784;9.934;2023-08-30T06:25:57;15.00;1.00
15450;DHT22;7826;49.784;9.934;2023-08-30T06:28:24;15.10;1.00
15450;DHT22;7826;49.784;9.934;2023-08-30T06:30:50;15.10;1.00
15450;DHT22;7826;49.784;9.934;2023-08-30T06:33:17;15.10;1.00
15450;DHT22;7826;49.784;9.934;2023-08-30T06:35:43;15.10;1.00
15450;DHT22;7826;49.784;9.934;2023-08-30T06:38:10;15.10;1.00
15450;DHT22;7826;49.784;9.934;2023-08-30T06:40:37;15.20;1.00
15450;DHT22;7826;49.784;9.934;2023-08-30T06:43:08;15.20;1.00
15450;DHT22;7826;49.784;9.934;2023-08-30T06:45:35;15.20;1.00
15450;DHT22;7826;49.784;9.934;2023-08-30T06:48:01;15.30;1.00
15450;DHT22;7826;49.784;9.934;2023-08-30T06:50:28;15.30;1.00
15450;DHT22;7826;49.784;9.934;2023-08-30T06:52:55;15.40;1.00
15450;DHT22;7826;49.784;9.934;2023-08-30T06:55:21;15.40;1.00
15450;DHT22;7826;49.784;9.934;2023-08-30T06:57:48;15.50;1.00
15450;DHT22;7826;49.784;9.934;2023-08-30T07:00:18;15.50;1.00
15450;DHT22;7826;49.784;9.934;2023-08-30T07:02:44;15.50;1.00
15450;DHT22;7826;49.784;9.934;2023-08-30T07:05:12;15.50;1.00
15450;DHT22;7826;49.784;9.934;2023-08-30T07:07:39;15.50;1.00
15450;DHT22;7826;49.784;9.934;2023-08-30T07:10:06;15.60;1.00
15450;DHT22;7826;49.784;9.934;2023-08-30T07:12:32;15.70;1.00
15450;DHT22;7826;49.784;9.934;2023-08-30T07:14:59;15.80;1.00
15450;DHT22;7826;49.784;9.934;2023-08-30T07:17:25;15.80;1.00
15450;DHT22;7826;49.784;9.934;2023-08-30T07:19:52;15.90;1.00
15450;DHT22;7826;49.784;9.934;2023-08-30T07:22:18;15.90;1.00
15450;DHT22;7826;49.784;9.934;2023-08-30T07:24:46;16.10;1.00
15450;DHT22;7826;49.784;9.934;2023-08-30T07:27:13;16.10;1.00
15450;DHT22;7826;49.784;9.934;2023-08-30T07:29:40;16.20;1.00
15450;DHT22;7826;49.784;9.934;2023-08-30T07:32:07;16.30;1.00
15450;DHT22;7826;49.784;9.934;2023-08-30T07:34:34;16.40;1.00
15450;DHT22;7826;49.784;9.934;2023-08-30T07:37:01;16.50;1.00
15450;DHT22;7826;49.784;9.934;2023-08-30T07:39:28;16.40;1.00
15450;DHT22;7826;49.784;9.934;2023-08-30T07:41:54;16.40;1.00
15450;DHT22;7826;49.784;9.934;2023-08-30T07:44:21;16.50;1.00
15450;DHT22;7826;49.784;9.934;2023-08-30T07:46:48;16.50;1.00
15450;DHT22;7826;49.784;9.934;2023-08-30T07:49:14;16.60;1.00
15450;DHT22;7826;49.784;9.934;2023-08-30T07:51:41;16.50;1.00
15450;DHT22;7826;49.784;9.934;2023-08-30T07:54:07;16.50;1.00
15450;DHT22;7826;49.784;9.934;2023-08-30T07:56:34;16.50;1.00
15450;DHT22;7826;49.784;9.934;2023-08-30T07:59:01;16.50;1.00
15450;DHT22;7826;49.784;9.934;2023-08-30T08:01:27;16.50;1.00
15450;DHT22;7826;49.784;9.934;2023-08-30T08:03:55;16.50;1.00
15450;DHT22;7826;49.784;9.934;2023-08-30T08:06:22;16.50;1.00
15450;DHT22;7826;49.784;9.934;2023-08-30T08:08:48;16.50;1.00
15450;DHT22;7826;49.784;9.934;2023-08-30T08:11:15;16.50;1.00
15450;DHT22;7826;49.784;9.934;2023-08-30T08:13:41;16.70;1.00
15450;DHT22;7826;49.784;9.934;2023-08-30T08:16:08;16.60;1.00
15450;DHT22;7826;49.784;9.934;2023-08-30T08:18:35;16.70;1.00
15450;DHT22;7826;49.784;9.934;2023-08-30T08:21:02;16.70;1.00
15450;DHT22;7826;49.784;9.934;2023-08-30T08:23:28;16.70;1.00
15450;DHT22;7826;49.784;9.934;2023-08-30T08:25:59;16.80;1.00
15450;DHT22;7826;49.784;9.934;2023-08-30T08:28:27;16.90;1.00
15450;DHT22;7826;49.784;9.934;2023-08-30T08:30:53;16.90;1.00
15450;DHT22;7826;49.784;9.934;2023-08-30T08:33:20;17.00;1.00
15450;DHT22;7826;49.784;9.934;2023-08-30T08:35:50;17.00;1.00
15450;DHT22;7826;49.784;9.934;2023-08-30T08:38:16;17.00;1.00
15450;DHT22;7826;49.784;9.934;2023-08-30T08:40:43;17.00;1.00
15450;DHT22;7826;49.784;9.934;2023-08-30T08:43:10;17.20;1.00
15450;DHT22;7826;49.784;9.934;2023-08-30T08:45:38;17.30;1.00
15450;DHT22;7826;49.784;9.934;2023-08-30T08:48:05;17.30;1.00
15450;DHT22;7826;49.784;9.934;2023-08-30T08:50:32;17.30;1.00
15450;DHT22;7826;49.784;9.934;2023-08-30T08:53:01;17.40;1.00
15450;DHT22;7826;49.784;9.934;2023-08-30T08:55:29;17.40;1.00
15450;DHT22;7826;49.784;9.934;2023-08-30T08:57:58;17.60;1.00
15450;DHT22;7826;49.784;9.934;2023-08-30T09:00:26;17.80;1.00
15450;DHT22;7826;49.784;9.934;2023-08-30T09:02:53;18.10;1.00
15450;DHT22;7826;49.784;9.934;2023-08-30T09:05:20;18.30;1.00
15450;DHT22;7826;49.784;9.934;2023-08-30T09:07:47;18.40;1.00
15450;DHT22;7826;49.784;9.934;2023-08-30T09:10:15;18.40;1.00
15450;DHT22;7826;49.784;9.934;2023-08-30T09:12:41;18.30;1.00
15450;DHT22;7826;49.784;9.934;2023-08-30T09:15:08;18.20;1.00
15450;DHT22;7826;49.784;9.934;2023-08-30T09:17:36;18.30;1.00
15450;DHT22;7826;49.784;9.934;2023-08-30T09:20:10;18.30;1.00
15450;DHT22;7826;49.784;9.934;2023-08-30T09:22:38;18.10;1.00
15450;DHT22;7826;49.784;9.934;2023-08-30T09:25:07;18.10;1.00
15450;DHT22;7826;49.784;9.934;2023-08-30T09:27:35;18.30;1.00
15450;DHT22;7826;49.784;9.934;2023-08-30T09:30:06;18.30;1.00
15450;DHT22;7826;49.784;9.934;2023-08-30T09:32:39;18.80;1.00
15450;DHT22;7826;49.784;9.934;2023-08-30T09:35:07;19.00;1.00
15450;DHT22;7826;49.784;9.934;2023-08-30T09:37:33;19.10;1.00
15450;DHT22;7826;49.784;9.934;2023-08-30T09:40:00;19.40;1.00
15450;DHT22;7826;49.784;9.934;2023-08-30T09:42:28;19.30;99.90
15450;DHT22;7826;49.784;9.934;2023-08-30T09:44:56;19.20;99.90
15450;DHT22;7826;49.784;9.934;2023-08-30T09:47:24;19.40;1.00
15450;DHT22;7826;49.784;9.934;2023-08-30T09:49:55;19.60;99.90
15450;DHT22;7826;49.784;9.934;2023-08-30T09:52:24;19.60;99.90
15450;DHT22;7826;49.784;9.934;2023-08-30T09:54:51;19.60;99.90
15450;DHT22;7826;49.784;9.934;2023-08-30T09:57:19;19.90;99.90
15450;DHT22;7826;49.784;9.934;2023-08-30T09:59:46;19.70;99.90
15450;DHT22;7826;49.784;9.934;2023-08-30T10:02:13;19.90;1.00
15450;DHT22;7826;49.784;9.934;2023-08-30T10:04:40;20.10;99.90
15450;DHT22;7826;49.784;9.934;2023-08-30T10:07:07;20.30;99.90
15450;DHT22;7826;49.784;9.934;2023-08-30T10:09:37;20.40;6.80
15450;DHT22;7826;49.784;9.934;2023-08-30T10:12:05;20.40;1.00
15450;DHT22;7826;49.784;9.934;2023-08-30T10:14:32;20.50;99.90
15450;DHT22;7826;49.784;9.934;2023-08-30T10:17:03;20.40;99.90
15450;DHT22;7826;49.784;9.934;2023-08-30T10:19:30;20.30;25.30
15450;DHT22;7826;49.784;9.934;2023-08-30T10:22:02;20.50;93.00
15450;DHT22;7826;49.784;9.934;2023-08-30T10:24:33;20.40;1.00
15450;DHT22;7826;49.784;9.934;2023-08-30T10:27:04;20.50;99.90
15450;DHT22;7826;49.784;9.934;2023-08-30T10:29:33;20.50;1.00
15450;DHT22;7826;49.784;9.934;2023-08-30T10:32:04;20.70;35.50
15450;DHT22;7826;49.784;9.934;2023-08-30T10:34:34;20.70;1.00
15450;DHT22;7826;49.784;9.934;2023-08-30T10:37:03;20.90;99.90
15450;DHT22;7826;49.784;9.934;2023-08-30T10:39:35;20.80;1.00
15450;DHT22;7826;49.784;9.934;2023-08-30T10:44:34;21.00;99.90
15450;DHT22;7826;49.784;9.934;2023-08-30T10:47:02;21.20;99.20
15450;DHT22;7826;49.784;9.934;2023-08-30T10:49:39;21.50;1.00
15450;DHT22;7826;49.784;9.934;2023-08-30T10:52:11;21.50;99.90
15450;DHT22;7826;49.784;9.934;2023-08-30T10:54:38;21.60;99.90
15450;DHT22;7826;49.784;9.934;2023-08-30T10:57:05;22.00;99.90
15450;DHT22;7826;49.784;9.934;2023-08-30T10:59:31;22.10;1.00
15450;DHT22;7826;49.784;9.934;2023-08-30T11:02:01;22.10;1.00
15450;DHT22;7826;49.784;9.934;2023-08-30T11:04:29;22.50;1.00
15450;DHT22;7826;49.784;9.934;2023-08-30T11:06:56;22.20;60.00
15450;DHT22;7826;49.784;9.934;2023-08-30T11:09:24;21.80;99.90
15450;DHT22;7826;49.784;9.934;2023-08-30T11:11:51;22.00;1.00
15450;DHT22;7826;49.784;9.934;2023-08-30T11:14:18;21.70;99.90
15450;DHT22;7826;49.784;9.934;2023-08-30T11:16:45;21.70;12.40
15450;DHT22;7826;49.784;9.934;2023-08-30T11:19:11;21.40;93.70
15450;DHT22;7826;49.784;9.934;2023-08-30T11:21:44;21.30;99.90
15450;DHT22;7826;49.784;9.934;2023-08-30T11:24:11;21.20;1.00
15450;DHT22;7826;49.784;9.934;2023-08-30T11:26:38;21.30;1.00
15450;DHT22;7826;49.784;9.934;2023-08-30T11:29:08;21.20;1.00
15450;DHT22;7826;49.784;9.934;2023-08-30T11:31:35;21.40;1.00
15450;DHT22;7826;49.784;9.934;2023-08-30T11:34:02;21.20;1.00
15450;DHT22;7826;49.784;9.934;2023-08-30T11:36:31;21.20;99.90
15450;DHT22;7826;49.784;9.934;2023-08-30T11:38:58;21.10;1.00
15450;DHT22;7826;49.784;9.934;2023-08-30T11:41:25;21.20;99.90
15450;DHT22;7826;49.784;9.934;2023-08-30T11:43:52;21.40;1.00
15450;DHT22;7826;49.784;9.934;2023-08-30T11:46:20;22.00;1.00
15450;DHT22;7826;49.784;9.934;2023-08-30T11:48:48;22.10;1.00
15450;DHT22;7826;49.784;9.934;2023-08-30T11:51:16;22.20;1.00
15450;DHT22;7826;49.784;9.934;2023-08-30T11:53:45;22.20;1.00
15450;DHT22;7826;49.784;9.934;2023-08-30T11:56:12;22.30;1.00
15450;DHT22;7826;49.784;9.934;2023-08-30T11:58:39;22.20;40.40
15450;DHT22;7826;49.784;9.934;2023-08-30T12:01:07;22.20;45.30
15450;DHT22;7826;49.784;9.934;2023-08-30T12:03:34;22.00;1.00
15450;DHT22;7826;49.784;9.934;2023-08-30T12:06:00;21.80;1.00
15450;DHT22;7826;49.784;9.934;2023-08-30T12:08:31;21.80;67.70
15450;DHT22;7826;49.784;9.934;2023-08-30T12:10:58;21.80;99.90
15450;DHT22;7826;49.784;9.934;2023-08-30T12:13:29;22.00;99.90
15450;DHT22;7826;49.784;9.934;2023-08-30T12:15:57;21.90;99.90
15450;DHT22;7826;49.784;9.934;2023-08-30T12:18:25;21.90;1.00
15450;DHT22;7826;49.784;9.934;2023-08-30T12:20:54;21.90;1.00
15450;DHT22;7826;49.784;9.934;2023-08-30T12:23:25;22.10;1.00
15450;DHT22;7826;49.784;9.934;2023-08-30T12:26:06;22.60;99.90
15450;DHT22;7826;49.784;9.934;2023-08-30T12:28:35;23.20;1.00
15450;DHT22;7826;49.784;9.934;2023-08-30T12:31:02;23.60;1.00
15450;DHT22;7826;49.784;9.934;2023-08-30T12:33:34;23.40;1.00
15450;DHT22;7826;49.784;9.934;2023-08-30T12:36:01;23.40;1.00
15450;DHT22;7826;49.784;9.934;2023-08-30T12:38:28;23.50;99.90
15450;DHT22;7826;49.784;9.934;2023-08-30T12:40:56;23.00;1.00
15450;DHT22;7826;49.784;9.934;2023-08-30T12:43:23;22.60;99.90
15450;DHT22;7826;49.784;9.934;2023-08-30T12:45:50;22.80;99.90
15450;DHT22;7826;49.784;9.934;2023-08-30T12:48:18;22.90;56.30
15450;DHT22;7826;49.784;9.934;2023-08-30T12:50:46;22.50;1.00
15450;DHT22;7826;49.784;9.934;2023-08-30T12:53:13;23.10;1.00
15450;DHT22;7826;49.784;9.934;2023-08-30T12:55:43;23.70;1.00
15450;DHT22;7826;49.784;9.934;2023-08-30T12:58:10;23.90;1.00
15450;DHT22;7826;49.784;9.934;2023-08-30T13:00:38;24.00;95.20
15450;DHT22;7826;49.784;9.934;2023-08-30T13:03:04;24.00;1.00
15450;DHT22;7826;49.784;9.934;2023-08-30T13:05:32;24.20;1.00
15450;DHT22;7826;49.784;9.934;2023-08-30T13:07:59;24.40;1.00
15450;DHT22;7826;49.784;9.934;2023-08-30T13:10:26;24.10;99.90
15450;DHT22;7826;49.784;9.934;2023-08-30T13:12:53;24.50;1.00
15450;DHT22;7826;49.784;9.934;2023-08-30T13:15:21;24.60;99.90
15450;DHT22;7826;49.784;9.934;2023-08-30T13:17:48;24.10;38.10
15450;DHT22;7826;49.784;9.934;2023-08-30T13:20:14;23.70;39.00
15450;DHT22;7826;49.784;9.934;2023-08-30T13:22:41;23.70;1.00
15450;DHT22;7826;49.784;9.934;2023-08-30T13:25:08;23.50;1.00
15450;DHT22;7826;49.784;9.934;2023-08-30T13:27:35;23.30;99.90
15450;DHT22;7826;49.784;9.934;2023-08-30T13:30:02;23.00;1.00
15450;DHT22;7826;49.784;9.934;2023-08-30T13:32:29;23.00;99.90
15450;DHT22;7826;49.784;9.934;2023-08-30T13:34:59;23.00;1.00
15450;DHT22;7826;49.784;9.934;2023-08-30T13:37:28;22.80;99.90
15450;DHT22;7826;49.784;9.934;2023-08-30T13:39:55;22.90;1.00
15450;DHT22;7826;49.784;9.934;2023-08-30T13:42:22;22.80;33.40
15450;DHT22;7826;49.784;9.934;2023-08-30T13:44:52;23.20;1.00
15450;DHT22;7826;49.784;9.934;2023-08-30T13:47:19;23.00;1.00
15450;DHT22;7826;49.784;9.934;2023-08-30T13:49:47;23.20;69.10
15450;DHT22;7826;49.784;9.934;2023-08-30T13:52:14;23.40;1.00
15450;DHT22;7826;49.784;9.934;2023-08-30T13:54:41;23.10;1.00
15450;DHT22;7826;49.784;9.934;2023-08-30T13:57:08;23.20;99.90
15450;DHT22;7826;49.784;9.934;2023-08-30T13:59:35;23.20;99.90
15450;DHT22;7826;49.784;9.934;2023-08-30T14:02:05;23.00;99.90
15450;DHT22;7826;49.784;9.934;2023-08-30T14:04:31;22.80;1.00
15450;DHT22;7826;49.784;9.934;2023-08-30T14:06:59;22.50;99.90
15450;DHT22;7826;49.784;9.934;2023-08-30T14:09:25;22.30;1.00
15450;DHT22;7826;49.784;9.934;2023-08-30T14:11:52;22.20;1.00
15450;DHT22;7826;49.784;9.934;2023-08-30T14:14:19;22.40;1.00
15450;DHT22;7826;49.784;9.934;2023-08-30T14:16:45;22.70;1.00
15450;DHT22;7826;49.784;9.934;2023-08-30T14:19:12;22.60;1.00
15450;DHT22;7826;49.784;9.934;2023-08-30T14:21:38;22.80;1.00
15450;DHT22;7826;49.784;9.934;2023-08-30T14:24:05;23.00;1.00
15450;DHT22;7826;49.784;9.934;2023-08-30T14:26:32;22.70;1.00
15450;DHT22;7826;49.784;9.934;2023-08-30T14:28:58;22.70;17.10
15450;DHT22;7826;49.784;9.934;2023-08-30T14:31:25;22.50;1.00
15450;DHT22;7826;49.784;9.934;2023-08-30T14:33:55;22.50;99.90
15450;DHT22;7826;49.784;9.934;2023-08-30T14:36:24;22.50;1.00
15450;DHT22;7826;49.784;9.934;2023-08-30T14:38:51;22.40;1.00
15450;DHT22;7826;49.784;9.934;2023-08-30T14:41:18;22.20;99.90
15450;DHT22;7826;49.784;9.934;2023-08-30T14:43:45;21.90;99.90
15450;DHT22;7826;49.784;9.934;2023-08-30T14:46:12;21.70;99.90
15450;DHT22;7826;49.784;9.934;2023-08-30T14:48:40;21.90;1.00
15450;DHT22;7826;49.784;9.934;2023-08-30T14:51:06;21.80;1.00
15450;DHT22;7826;49.784;9.934;2023-08-30T14:53:36;21.90;1.00
15450;DHT22;7826;49.784;9.934;2023-08-30T14:56:03;22.20;97.80
15450;DHT22;7826;49.784;9.934;2023-08-30T14:58:34;22.00;1.00
15450;DHT22;7826;49.784;9.934;2023-08-30T15:01:01;22.20;1.00
15450;DHT22;7826;49.784;9.934;2023-08-30T15:03:28;22.40;99.90
15450;DHT22;7826;49.784;9.934;2023-08-30T15:05:56;22.10;1.00
15450;DHT22;7826;49.784;9.934;2023-08-30T15:08:23;22.10;99.90
15450;DHT22;7826;49.784;9.934;2023-08-30T15:10:50;22.00;1.00
15450;DHT22;7826;49.784;9.934;2023-08-30T15:13:20;21.80;1.00
15450;DHT22;7826;49.784;9.934;2023-08-30T15:15:47;21.90;1.00
15450;DHT22;7826;49.784;9.934;2023-08-30T15:18:14;21.80;1.00
15450;DHT22;7826;49.784;9.934;2023-08-30T15:20:40;21.70;1.00
15450;DHT22;7826;49.784;9.934;2023-08-30T15:23:09;21.40;1.00
15450;DHT22;7826;49.784;9.934;2023-08-30T15:25:39;21.20;99.90
15450;DHT22;7826;49.784;9.934;2023-08-30T15:28:06;21.10;1.00
15450;DHT22;7826;49.784;9.934;2023-08-30T15:30:32;21.10;1.00
15450;DHT22;7826;49.784;9.934;2023-08-30T15:33:00;21.30;1.00
15450;DHT22;7826;49.784;9.934;2023-08-30T15:35:27;21.20;1.00
15450;DHT22;7826;49.784;9.934;2023-08-30T15:37:54;20.90;1.00
15450;DHT22;7826;49.784;9.934;2023-08-30T15:40:20;21.00;99.90
15450;DHT22;7826;49.784;9.934;2023-08-30T15:42:47;20.90;1.00
15450;DHT22;7826;49.784;9.934;2023-08-30T15:45:14;21.00;1.00
15450;DHT22;7826;49.784;9.934;2023-08-30T15:47:40;21.10;99.90
15450;DHT22;7826;49.784;9.934;2023-08-30T15:50:07;21.00;1.00
15450;DHT22;7826;49.784;9.934;2023-08-30T15:52:33;20.90;1.00
15450;DHT22;7826;49.784;9.934;2023-08-30T15:55:00;20.80;99.90
15450;DHT22;7826;49.784;9.934;2023-08-30T15:57:26;20.70;99.90
15450;DHT22;7826;49.784;9.934;2023-08-30T15:59:53;20.70;99.90
15450;DHT22;7826;49.784;9.934;2023-08-30T16:02:19;20.70;1.00
15450;DHT22;7826;49.784;9.934;2023-08-30T16:04:46;20.60;1.00
15450;DHT22;7826;49.784;9.934;2023-08-30T16:07:13;20.70;1.00